createdAt,value
2023-05-05T00:01:09.016Z,56.54
2023-05-05T00:03:35.824Z,56.71
2023-05-05T00:06:02.729Z,56.17
2023-05-05T00:08:29.486Z,56.36
2023-05-05T00:10:57.314Z,56.31
2023-05-05T00:13:23.943Z,57.06
2023-05-05T00:15:52.064Z,56.21
2023-05-05T00:18:19.300Z,56.89
2023-05-05T00:20:47.086Z,56.74
2023-05-05T00:23:14.440Z,56.74
2023-05-05T00:25:41.064Z,56.24
2023-05-05T00:28:07.738Z,56.01
2023-05-05T00:30:34.547Z,56.45
2023-05-05T00:33:01.460Z,56.41
2023-05-05T00:35:27.929Z,56.91
2023-05-05T00:37:55.217Z,57.49
2023-05-05T00:40:21.960Z,57.49
2023-05-05T00:42:52.508Z,57.39
2023-05-05T00:45:20.308Z,57.52
2023-05-05T00:47:49.335Z,57.57
2023-05-05T00:50:30.168Z,58.14
2023-05-05T00:53:00.891Z,58.67
2023-05-05T00:55:29.180Z,58.56
2023-05-05T00:57:57.078Z,58.10
2023-05-05T01:00:23.859Z,57.96
2023-05-05T01:02:52.047Z,58.31
2023-05-05T01:05:21.654Z,57.95
2023-05-05T01:08:00.404Z,58.84
2023-05-05T01:10:40.677Z,58.60
2023-05-05T01:13:40.572Z,58.52
2023-05-05T01:16:14.652Z,58.55
2023-05-05T01:19:00.839Z,59.17
2023-05-05T01:21:41.324Z,58.89
2023-05-05T01:24:26.440Z,58.47
2023-05-05T01:27:05.307Z,58.59
2023-05-05T01:29:58.115Z,59.25
2023-05-05T01:32:31.663Z,59.18
2023-05-05T01:35:09.721Z,59.93
2023-05-05T01:38:02.839Z,59.52
2023-05-05T01:40:37.635Z,59.47
2023-05-05T01:43:08.101Z,59.84
2023-05-05T01:45:38.967Z,59.96
2023-05-05T01:48:08.256Z,59.44
2023-05-05T01:50:36.800Z,59.90
2023-05-05T01:53:05.252Z,60.32
2023-05-05T01:55:33.431Z,60.29
2023-05-05T01:58:03.271Z,60.44
2023-05-05T02:00:30.552Z,61.24
2023-05-05T02:02:59.802Z,61.13
2023-05-05T02:05:27.320Z,60.55
2023-05-05T02:07:58.779Z,60.57
2023-05-05T02:10:26.605Z,60.97
2023-05-05T02:12:53.957Z,60.77
2023-05-05T02:15:21.968Z,61.07
2023-05-05T02:17:52.748Z,61.31
2023-05-05T02:20:20.377Z,61.52
2023-05-05T02:22:48.430Z,61.87
2023-05-05T02:25:15.175Z,61.52
2023-05-05T02:27:43.409Z,62.32
2023-05-05T02:30:13.820Z,62.37
2023-05-05T02:32:44.524Z,62.24
2023-05-05T02:35:15.593Z,61.67
2023-05-05T02:37:50.597Z,62.59
2023-05-05T02:40:22.058Z,62.20
2023-05-05T02:42:51.446Z,62.30
2023-05-05T02:45:21.453Z,62.92
2023-05-05T02:47:49.662Z,62.85
2023-05-05T02:50:16.220Z,63.04
2023-05-05T02:52:51.096Z,63.27
2023-05-05T02:55:21.418Z,63.33
2023-05-05T02:58:11.703Z,63.87
2023-05-05T03:00:53.491Z,63.62
2023-05-05T03:03:36.474Z,63.79
2023-05-05T03:06:20.015Z,63.86
2023-05-05T03:09:10.665Z,64.54
2023-05-05T03:11:44.847Z,64.54
2023-05-05T03:14:19.130Z,64.47
2023-05-05T03:16:49.254Z,64.96
2023-05-05T03:19:20.212Z,64.72
2023-05-05T03:21:52.347Z,65.52
2023-05-05T03:24:20.545Z,64.92
2023-05-05T03:27:07.228Z,65.33
2023-05-05T03:29:37.507Z,65.09
2023-05-05T03:32:08.266Z,65.37
2023-05-05T03:34:37.424Z,65.46
2023-05-05T03:37:05.196Z,65.32
2023-05-05T03:39:32.084Z,65.60
2023-05-05T03:41:59.043Z,65.69
2023-05-05T03:44:29.694Z,65.83
2023-05-05T03:46:56.802Z,65.67
2023-05-05T03:49:24.781Z,66.05
2023-05-05T03:51:52.095Z,66.23
2023-05-05T03:54:18.748Z,66.28
2023-05-05T03:56:45.365Z,66.08
2023-05-05T03:59:12.006Z,66.37
2023-05-05T04:01:38.726Z,66.78
2023-05-05T04:04:05.566Z,66.44
2023-05-05T04:06:32.218Z,66.96
2023-05-05T04:08:58.718Z,67.31
2023-05-05T04:11:26.124Z,67.28
2023-05-05T04:13:54.247Z,67.15
2023-05-05T04:16:21.259Z,67.54
2023-05-05T04:18:48.052Z,67.33
2023-05-05T04:21:14.532Z,68.29
2023-05-05T04:23:41.267Z,67.88
2023-05-05T04:26:07.703Z,68.30
2023-05-05T04:28:34.244Z,68.44
2023-05-05T04:31:01.381Z,68.70
2023-05-05T04:33:30.912Z,68.80
2023-05-05T04:35:58.258Z,68.68
2023-05-05T04:38:24.973Z,69.54
2023-05-05T04:40:51.436Z,69.30
2023-05-05T04:43:17.935Z,69.26
2023-05-05T04:45:54.750Z,69.32
2023-05-05T04:48:24.521Z,69.59
2023-05-05T04:50:51.715Z,69.85
2023-05-05T04:53:18.278Z,70.08
2023-05-05T04:55:44.815Z,69.56
2023-05-05T04:58:11.355Z,69.75
2023-05-05T05:00:38.560Z,69.36
2023-05-05T05:03:05.168Z,69.70
2023-05-05T05:05:31.652Z,69.56
2023-05-05T05:07:58.173Z,69.57
2023-05-05T05:10:24.687Z,69.25
2023-05-05T05:12:51.224Z,69.44
2023-05-05T05:15:17.686Z,69.45
2023-05-05T05:17:44.474Z,69.27
2023-05-05T05:20:12.011Z,68.97
2023-05-05T05:22:39.062Z,69.33
2023-05-05T05:25:09.298Z,69.25
2023-05-05T05:27:36.428Z,70.03
2023-05-05T05:30:03.170Z,70.01
2023-05-05T05:32:31.063Z,69.51
2023-05-05T05:34:57.716Z,69.88
2023-05-05T05:37:24.536Z,70.21
2023-05-05T05:39:52.076Z,69.95
2023-05-05T05:42:20.049Z,70.67
2023-05-05T05:44:46.623Z,69.49
2023-05-05T05:47:13.696Z,69.68
2023-05-05T05:49:40.191Z,69.98
2023-05-05T05:52:06.900Z,68.62
2023-05-05T05:54:35.501Z,68.59
2023-05-05T05:57:04.269Z,67.33
2023-05-05T05:59:30.820Z,67.44
2023-05-05T06:01:57.374Z,67.06
2023-05-05T06:04:24.225Z,65.89
2023-05-05T06:06:50.805Z,65.11
2023-05-05T06:09:17.355Z,65.36
2023-05-05T06:11:43.932Z,65.75
2023-05-05T06:14:10.573Z,65.67
2023-05-05T06:16:37.179Z,66.18
2023-05-05T06:19:09.703Z,66.58
2023-05-05T06:21:37.614Z,66.74
2023-05-05T06:24:04.645Z,65.13
2023-05-05T06:26:32.011Z,65.68
2023-05-05T06:28:58.567Z,64.75
2023-05-05T06:31:25.193Z,64.04
2023-05-05T06:33:51.758Z,65.28
2023-05-05T06:36:18.247Z,64.63
2023-05-05T06:38:44.736Z,64.99
2023-05-05T06:41:11.428Z,64.48
2023-05-05T06:43:37.976Z,64.03
2023-05-05T06:46:07.954Z,63.40
2023-05-05T06:48:34.662Z,63.52
2023-05-05T06:51:01.239Z,62.69
2023-05-05T06:53:27.696Z,62.77
2023-05-05T06:55:54.176Z,62.69
2023-05-05T06:58:21.518Z,63.19
2023-05-05T07:00:48.326Z,64.00
2023-05-05T07:03:15.082Z,64.18
2023-05-05T07:05:42.022Z,63.00
2023-05-05T07:08:09.825Z,63.94
2023-05-05T07:10:36.264Z,63.73
2023-05-05T07:13:02.808Z,63.06
2023-05-05T07:15:29.918Z,63.39
2023-05-05T07:17:57.170Z,63.43
2023-05-05T07:20:24.332Z,63.28
2023-05-05T07:22:51.038Z,63.81
2023-05-05T07:25:17.513Z,62.60
2023-05-05T07:27:44.269Z,62.89
2023-05-05T07:30:14.732Z,63.05
2023-05-05T07:32:44.020Z,63.47
2023-05-05T07:35:10.776Z,62.04
2023-05-05T07:37:37.532Z,62.66
2023-05-05T07:40:04.309Z,62.12
2023-05-05T07:42:30.876Z,62.40
2023-05-05T07:44:57.307Z,61.66
2023-05-05T07:47:24.043Z,61.08
2023-05-05T07:49:50.966Z,62.71
2023-05-05T07:52:17.435Z,61.46
2023-05-05T07:54:45.150Z,60.54
2023-05-05T07:57:11.826Z,61.79
2023-05-05T07:59:41.006Z,60.26
2023-05-05T08:02:07.670Z,61.47
2023-05-05T08:04:34.132Z,60.42
2023-05-05T08:07:00.679Z,60.57
2023-05-05T08:09:27.170Z,59.84
2023-05-05T08:11:53.649Z,60.32
2023-05-05T08:14:20.075Z,59.40
2023-05-05T08:16:46.644Z,59.10
2023-05-05T08:19:27.639Z,58.16
2023-05-05T08:21:56.169Z,55.75
2023-05-05T08:24:22.708Z,53.44
2023-05-05T08:26:49.302Z,53.53
2023-05-05T08:29:15.719Z,54.01
2023-05-05T08:31:42.411Z,54.81
2023-05-05T08:34:08.885Z,54.35
2023-05-05T08:36:35.437Z,53.61
2023-05-05T08:39:01.994Z,53.43
2023-05-05T08:41:28.807Z,53.80
2023-05-05T08:43:56.206Z,54.30
2023-05-05T08:46:24.389Z,54.71
2023-05-05T08:48:55.436Z,53.74
2023-05-05T08:51:23.137Z,53.60
2023-05-05T08:53:55.777Z,53.33
2023-05-05T08:56:22.493Z,53.18
2023-05-05T08:58:50.614Z,54.57
2023-05-05T09:01:18.194Z,53.57
2023-05-05T09:03:46.133Z,53.95
2023-05-05T09:06:13.038Z,52.39
2023-05-05T09:08:40.014Z,53.01
2023-05-05T09:11:06.593Z,52.79
2023-05-05T09:13:33.047Z,52.87
2023-05-05T09:16:00.147Z,52.97
2023-05-05T09:18:26.804Z,54.84
2023-05-05T09:20:53.285Z,52.44
2023-05-05T09:23:20.846Z,53.71
2023-05-05T09:26:03.845Z,55.55
2023-05-05T09:28:30.420Z,54.81
2023-05-05T09:31:12.404Z,53.41
2023-05-05T09:33:39.292Z,53.76
2023-05-05T09:36:06.233Z,54.49
2023-05-05T09:38:34.539Z,54.64
2023-05-05T09:41:01.123Z,55.02
2023-05-05T09:43:27.557Z,55.62
2023-05-05T09:46:07.354Z,54.54
2023-05-05T09:48:33.928Z,55.30
2023-05-05T09:51:00.652Z,54.70
2023-05-05T09:53:38.141Z,55.88
2023-05-05T09:56:04.993Z,55.68
2023-05-05T09:58:31.619Z,55.74
2023-05-05T10:00:59.289Z,54.84
2023-05-05T10:03:26.290Z,55.44
2023-05-05T10:05:58.876Z,55.88
2023-05-05T10:08:27.675Z,55.66
2023-05-05T10:11:00.396Z,54.73
2023-05-05T10:13:27.889Z,53.70
2023-05-05T10:15:56.788Z,53.42
2023-05-05T10:18:25.267Z,53.69
2023-05-05T10:20:57.465Z,53.02
2023-05-05T10:23:28.093Z,53.76
2023-05-05T10:26:02.319Z,54.95
2023-05-05T10:28:32.793Z,55.09
2023-05-05T10:31:02.183Z,54.05
2023-05-05T10:33:35.608Z,54.47
2023-05-05T10:36:05.202Z,52.84
2023-05-05T10:38:32.340Z,53.25
2023-05-05T10:41:03.066Z,52.12
2023-05-05T10:43:31.277Z,51.51
2023-05-05T10:45:59.155Z,50.36
2023-05-05T10:48:33.036Z,51.34
2023-05-05T10:51:12.647Z,50.94
2023-05-05T10:53:49.623Z,49.31
2023-05-05T10:56:26.662Z,49.09
2023-05-05T10:59:00.037Z,48.97
2023-05-05T11:01:34.946Z,49.91
2023-05-05T11:04:17.871Z,48.82
2023-05-05T11:07:13.424Z,50.07
2023-05-05T11:10:04.232Z,51.07
2023-05-05T11:12:32.110Z,50.05
2023-05-05T11:15:23.619Z,48.99
2023-05-05T11:17:50.122Z,48.91
2023-05-05T11:20:16.934Z,48.99
2023-05-05T11:23:05.322Z,50.60
2023-05-05T11:25:34.885Z,49.09
2023-05-05T11:28:13.190Z,48.91
2023-05-05T11:30:54.778Z,48.85
2023-05-05T11:33:38.215Z,48.04
2023-05-05T11:36:12.813Z,48.87
2023-05-05T11:38:39.370Z,49.84
2023-05-05T11:41:13.694Z,49.73
2023-05-05T11:43:41.763Z,49.21
2023-05-05T11:46:15.423Z,49.38
2023-05-05T11:48:45.981Z,49.33
2023-05-05T11:51:13.616Z,49.34
2023-05-05T11:53:45.466Z,49.46
2023-05-05T11:56:21.848Z,49.64
2023-05-05T11:58:49.605Z,49.76
2023-05-05T12:01:16.622Z,51.06
2023-05-05T12:03:45.883Z,51.94
2023-05-05T12:06:12.943Z,52.85
2023-05-05T12:08:40.813Z,53.74
2023-05-05T12:11:09.625Z,51.14
2023-05-05T12:13:36.139Z,52.11
2023-05-05T12:16:13.207Z,51.91
2023-05-05T12:18:40.982Z,52.71
2023-05-05T12:21:20.608Z,51.88
2023-05-05T12:23:47.167Z,51.37
2023-05-05T12:26:31.598Z,51.94
2023-05-05T12:29:01.185Z,51.71
2023-05-05T12:31:42.825Z,51.32
2023-05-05T12:34:10.675Z,49.57
2023-05-05T12:36:37.977Z,49.99
2023-05-05T12:39:05.404Z,49.89
2023-05-05T12:41:32.655Z,50.78
2023-05-05T12:44:00.608Z,51.78
2023-05-05T12:46:29.688Z,49.94
2023-05-05T12:49:06.463Z,50.62
2023-05-05T12:51:37.378Z,50.46
2023-05-05T12:54:06.376Z,50.33
2023-05-05T12:56:40.542Z,50.71
2023-05-05T12:59:09.039Z,51.43
2023-05-05T13:01:37.557Z,51.00
2023-05-05T13:04:10.707Z,52.28
2023-05-05T13:06:38.339Z,49.62
2023-05-05T13:09:05.998Z,48.77
2023-05-05T13:11:39.454Z,50.68
2023-05-05T13:14:06.915Z,48.88
2023-05-05T13:16:33.915Z,48.32
2023-05-05T13:19:00.465Z,49.38
2023-05-05T13:21:27.973Z,49.01
2023-05-05T13:23:55.952Z,48.86
2023-05-05T13:26:28.319Z,50.40
2023-05-05T13:28:54.948Z,50.24
2023-05-05T13:31:22.693Z,49.47
2023-05-05T13:33:49.224Z,49.18
2023-05-05T13:36:15.825Z,49.68
2023-05-05T13:38:42.449Z,49.77
2023-05-05T13:41:08.851Z,50.15
2023-05-05T13:43:35.309Z,49.82
2023-05-05T13:46:16.108Z,49.52
2023-05-05T13:48:46.111Z,49.82
2023-05-05T13:51:13.215Z,49.05
2023-05-05T13:53:43.720Z,49.21
2023-05-05T13:56:10.660Z,48.84
2023-05-05T13:58:37.986Z,49.96
2023-05-05T14:01:04.583Z,49.19
2023-05-05T14:03:31.506Z,51.02
2023-05-05T14:05:58.058Z,51.16
2023-05-05T14:08:24.614Z,52.41
2023-05-05T14:10:52.168Z,51.98
2023-05-05T14:13:19.181Z,51.12
2023-05-05T14:15:45.862Z,52.42
2023-05-05T14:18:12.303Z,50.71
2023-05-05T14:20:38.774Z,51.99
2023-05-05T14:23:05.668Z,52.57
2023-05-05T14:25:32.368Z,52.09
2023-05-05T14:27:58.831Z,52.57
2023-05-05T14:30:25.608Z,51.77
2023-05-05T14:32:52.381Z,50.99
2023-05-05T14:35:18.827Z,52.25
2023-05-05T14:37:45.417Z,51.96
2023-05-05T14:40:11.985Z,51.75
2023-05-05T14:42:38.747Z,51.82
2023-05-05T14:45:06.353Z,52.71
2023-05-05T14:47:33.651Z,53.05
2023-05-05T14:50:00.268Z,52.58
2023-05-05T14:52:26.984Z,52.43
2023-05-05T14:54:53.412Z,52.68
2023-05-05T14:57:19.922Z,54.40
2023-05-05T14:59:46.379Z,53.93
2023-05-05T15:02:13.122Z,52.90
2023-05-05T15:04:39.553Z,54.12
2023-05-05T15:07:06.028Z,53.64
2023-05-05T15:09:32.430Z,54.27
2023-05-05T15:11:59.229Z,53.79
2023-05-05T15:14:26.512Z,53.98
2023-05-05T15:16:52.966Z,52.05
2023-05-05T15:19:19.375Z,53.25
2023-05-05T15:21:52.957Z,51.52
2023-05-05T15:24:20.737Z,51.00
2023-05-05T15:26:47.276Z,51.96
2023-05-05T15:29:13.765Z,52.00
2023-05-05T15:31:40.382Z,51.81
2023-05-05T15:34:06.945Z,52.75
2023-05-05T15:36:33.536Z,53.48
2023-05-05T15:38:59.981Z,53.99
2023-05-05T15:41:29.257Z,53.62
2023-05-05T15:43:55.797Z,54.16
2023-05-05T15:46:22.435Z,54.22
2023-05-05T15:48:48.885Z,54.42
2023-05-05T15:51:15.419Z,53.83
2023-05-05T15:53:41.835Z,55.30
2023-05-05T15:56:08.357Z,54.70
2023-05-05T15:58:34.824Z,54.77
2023-05-05T16:01:01.477Z,56.08
2023-05-05T16:03:28.085Z,57.07
2023-05-05T16:05:54.835Z,56.97
2023-05-05T16:08:21.262Z,55.81
2023-05-05T16:10:47.848Z,57.24
2023-05-05T16:13:14.374Z,56.13
2023-05-05T16:15:40.967Z,56.20
2023-05-05T16:18:07.470Z,56.67
2023-05-05T16:20:34.225Z,56.08
2023-05-05T16:23:00.763Z,56.67
2023-05-05T16:25:27.266Z,56.65
2023-05-05T16:27:56.539Z,56.81
2023-05-05T16:30:23.281Z,56.88
2023-05-05T16:32:51.651Z,57.06
2023-05-05T16:35:18.346Z,56.94
2023-05-05T16:37:44.835Z,57.39
2023-05-05T16:40:12.003Z,58.29
2023-05-05T16:42:38.434Z,58.24
2023-05-05T16:45:06.805Z,57.95
2023-05-05T16:47:33.493Z,57.95
2023-05-05T16:50:00.053Z,58.26
2023-05-05T16:52:26.599Z,58.56
2023-05-05T16:54:55.781Z,58.60
2023-05-05T16:57:23.413Z,59.28
2023-05-05T16:59:50.275Z,59.33
2023-05-05T17:02:16.917Z,58.78
2023-05-05T17:04:43.568Z,58.82
2023-05-05T17:07:09.992Z,59.53
2023-05-05T17:09:36.465Z,58.91
2023-05-05T17:12:04.291Z,58.99
2023-05-05T17:14:31.179Z,59.35
2023-05-05T17:16:57.802Z,59.59
2023-05-05T17:19:24.357Z,59.59
2023-05-05T17:21:50.788Z,60.23
2023-05-05T17:24:17.351Z,60.47
2023-05-05T17:26:44.081Z,60.47
2023-05-05T17:29:12.925Z,60.94
2023-05-05T17:31:39.657Z,60.95
2023-05-05T17:34:06.268Z,61.15
2023-05-05T17:36:33.522Z,61.73
2023-05-05T17:39:00.067Z,62.82
2023-05-05T17:41:27.024Z,63.81
2023-05-05T17:43:53.464Z,65.28
2023-05-05T17:46:19.992Z,65.25
2023-05-05T17:48:46.644Z,65.31
2023-05-05T17:51:13.263Z,65.54
2023-05-05T17:53:39.917Z,65.67
2023-05-05T17:56:08.692Z,65.79
2023-05-05T17:58:35.585Z,68.74
2023-05-05T18:01:02.437Z,69.74
2023-05-05T18:03:29.172Z,70.48
2023-05-05T18:05:56.070Z,70.83
2023-05-05T18:08:23.141Z,71.33
2023-05-05T18:10:49.708Z,71.97
2023-05-05T18:13:16.212Z,71.69
2023-05-05T18:15:42.772Z,71.19
2023-05-05T18:18:09.288Z,71.85
2023-05-05T18:20:35.953Z,72.36
2023-05-05T18:23:02.364Z,72.01
2023-05-05T18:25:29.194Z,72.12
2023-05-05T18:27:55.631Z,71.64
2023-05-05T18:30:22.142Z,71.34
2023-05-05T18:32:48.773Z,70.71
2023-05-05T18:35:15.540Z,71.54
2023-05-05T18:37:42.214Z,70.89
2023-05-05T18:40:10.158Z,71.26
2023-05-05T18:42:36.618Z,71.36
2023-05-05T18:45:03.302Z,71.09
2023-05-05T18:47:29.832Z,70.75
2023-05-05T18:49:56.410Z,70.50
2023-05-05T18:52:22.924Z,70.43
2023-05-05T18:54:49.405Z,69.55
2023-05-05T18:57:15.838Z,69.52
2023-05-05T18:59:42.513Z,69.73
2023-05-05T19:02:08.969Z,69.40
2023-05-05T19:04:37.819Z,69.54
2023-05-05T19:07:04.898Z,69.07
2023-05-05T19:09:31.697Z,69.23
2023-05-05T19:11:58.132Z,68.84
2023-05-05T19:14:24.921Z,68.95
2023-05-05T19:16:51.925Z,68.66
2023-05-05T19:19:18.728Z,69.01
2023-05-05T19:21:45.140Z,68.97
2023-05-05T19:24:11.665Z,69.52
2023-05-05T19:26:38.088Z,69.73
2023-05-05T19:29:04.863Z,70.30
2023-05-05T19:31:31.683Z,70.62
2023-05-05T19:34:03.908Z,70.58
2023-05-05T19:36:31.666Z,70.88
2023-05-05T19:39:03.935Z,70.55
2023-05-05T19:41:31.034Z,71.16
2023-05-05T19:43:57.754Z,70.26
2023-05-05T19:46:27.427Z,70.79
2023-05-05T19:48:54.091Z,71.04
2023-05-05T19:51:20.570Z,70.80
2023-05-05T19:53:47.275Z,71.97
2023-05-05T19:56:13.961Z,73.39
2023-05-05T19:58:57.801Z,74.87
2023-05-05T20:01:25.151Z,74.74
2023-05-05T20:03:54.406Z,75.86
2023-05-05T20:06:21.475Z,76.17
2023-05-05T20:08:48.067Z,76.63
2023-05-05T20:11:15.748Z,77.39
2023-05-05T20:13:43.069Z,77.60
2023-05-05T20:16:10.097Z,78.45
2023-05-05T20:18:36.688Z,78.83
2023-05-05T20:21:03.438Z,78.62
2023-05-05T20:23:30.340Z,78.36
2023-05-05T20:25:56.732Z,78.21
2023-05-05T20:28:23.949Z,79.51
2023-05-05T20:30:50.484Z,79.21
2023-05-05T20:33:16.976Z,79.13
2023-05-05T20:35:43.374Z,79.66
2023-05-05T20:38:10.143Z,79.35
2023-05-05T20:40:36.963Z,79.68
2023-05-05T20:43:03.698Z,80.03
2023-05-05T20:45:31.690Z,79.87
2023-05-05T20:48:00.465Z,80.45
2023-05-05T20:50:26.965Z,80.67
2023-05-05T20:52:53.442Z,80.48
2023-05-05T20:55:20.060Z,80.46
2023-05-05T20:57:47.039Z,81.37
2023-05-05T21:00:14.022Z,80.21
2023-05-05T21:02:40.733Z,80.59
2023-05-05T21:05:07.460Z,80.62
2023-05-05T21:07:34.476Z,80.98
2023-05-05T21:10:02.433Z,80.46
2023-05-05T21:12:29.792Z,80.39
2023-05-05T21:14:58.466Z,80.35
2023-05-05T21:17:29.176Z,80.52
2023-05-05T21:19:56.118Z,81.07
2023-05-05T21:22:23.001Z,81.17
2023-05-05T21:24:49.416Z,80.72
2023-05-05T21:27:16.166Z,80.74
2023-05-05T21:29:42.606Z,80.80
2023-05-05T21:32:10.996Z,80.53
2023-05-05T21:34:38.853Z,81.05
2023-05-05T21:37:06.468Z,80.79
2023-05-05T21:39:33.460Z,80.75
2023-05-05T21:42:00.569Z,80.93
2023-05-05T21:44:28.068Z,80.54
2023-05-05T21:46:55.619Z,81.28
2023-05-05T21:49:22.211Z,80.95
2023-05-05T21:51:48.950Z,80.89
2023-05-05T21:54:15.773Z,80.83
2023-05-05T21:56:42.430Z,81.09
2023-05-05T21:59:08.952Z,81.29
2023-05-05T22:01:35.762Z,81.22
2023-05-05T22:04:02.425Z,81.33
2023-05-05T22:06:29.294Z,81.60
2023-05-05T22:08:56.829Z,81.33
2023-05-05T22:11:23.644Z,81.53
2023-05-05T22:13:50.132Z,81.77
2023-05-05T22:16:19.763Z,81.28
2023-05-05T22:18:46.724Z,81.11
2023-05-05T22:21:13.212Z,81.07
2023-05-05T22:23:41.696Z,80.85
2023-05-05T22:26:08.902Z,81.36
2023-05-05T22:28:35.726Z,81.48
2023-05-05T22:31:02.270Z,81.64
2023-05-05T22:33:28.888Z,81.33
2023-05-05T22:35:55.662Z,81.10
2023-05-05T22:38:22.266Z,81.30
2023-05-05T22:40:49.790Z,80.95
2023-05-05T22:43:16.267Z,80.82
2023-05-05T22:45:43.721Z,81.36
2023-05-05T22:48:10.288Z,81.17
2023-05-05T22:50:37.458Z,81.32
2023-05-05T22:53:04.089Z,80.78
2023-05-05T22:55:30.886Z,80.83
2023-05-05T22:57:57.337Z,80.56
2023-05-05T23:00:24.146Z,80.37
2023-05-05T23:02:50.942Z,81.09
2023-05-05T23:05:17.383Z,80.62
2023-05-05T23:07:44.165Z,80.46
2023-05-05T23:10:10.956Z,80.81
2023-05-05T23:12:37.684Z,80.26
2023-05-05T23:15:04.982Z,80.13
2023-05-05T23:17:31.552Z,80.86
2023-05-05T23:19:58.006Z,81.09
2023-05-05T23:22:24.588Z,80.38
2023-05-05T23:24:51.023Z,80.93
2023-05-05T23:27:17.740Z,80.99
2023-05-05T23:29:44.172Z,80.48
2023-05-05T23:32:10.723Z,81.15
2023-05-05T23:34:37.180Z,80.71
2023-05-05T23:37:06.085Z,80.53
2023-05-05T23:39:35.774Z,80.96
2023-05-05T23:42:02.343Z,80.66
2023-05-05T23:44:28.864Z,80.43
2023-05-05T23:46:55.445Z,80.22
2023-05-05T23:49:22.100Z,79.76
2023-05-05T23:51:48.536Z,80.55
2023-05-05T23:54:14.948Z,80.18
2023-05-05T23:56:42.682Z,81.04
2023-05-05T23:59:09.215Z,80.74
